sensor_id;sensor_type;location;lat;lon;timestamp;pressure;altitude;pressure_sealevel;temperature;humidity
7474;BME280;3778;42.572;23.426;2022-12-18T00:02:20;59364.69;;;-146.70;84.69
7474;BME280;3778;42.572;23.426;2022-12-18T00:04:48;59327.50;;;-146.70;84.66
7474;BME280;3778;42.572;23.426;2022-12-18T00:07:15;59337.84;;;-146.70;84.57
7474;BME280;3778;42.572;23.426;2022-12-18T00:09:42;59339.91;;;-146.70;84.36
7474;BME280;3778;42.572;23.426;2022-12-18T00:12:08;59339.91;;;-146.70;84.51
7474;BME280;3778;42.572;23.426;2022-12-18T00:14:35;59298.59;;;-146.70;84.42
7474;BME280;3778;42.572;23.426;2022-12-18T00:17:02;59339.91;;;-146.70;84.14
7474;BME280;3778;42.572;23.426;2022-12-18T00:19:28;59335.78;;;-146.70;83.88
7474;BME280;3778;42.572;23.426;2022-12-18T00:21:56;59346.09;;;-146.70;83.77
7474;BME280;3778;42.572;23.426;2022-12-18T00:24:23;59300.66;;;-146.70;83.06
7474;BME280;3778;42.572;23.426;2022-12-18T00:26:50;59280.00;;;-146.70;82.73
7474;BME280;3778;42.572;23.426;2022-12-18T00:29:17;59350.22;;;-146.70;83.16
7474;BME280;3778;42.572;23.426;2022-12-18T00:31:43;59350.22;;;-146.70;82.36
7474;BME280;3778;42.572;23.426;2022-12-18T00:34:11;59331.63;;;-146.70;82.24
7474;BME280;3778;42.572;23.426;2022-12-18T00:36:39;59366.75;;;-146.70;82.13
7474;BME280;3778;42.572;23.426;2022-12-18T00:39:09;59329.56;;;-146.70;82.12
7474;BME280;3778;42.572;23.426;2022-12-18T00:41:37;59331.63;;;-146.70;82.03
7474;BME280;3778;42.572;23.426;2022-12-18T00:44:21;59387.41;;;-146.70;81.83
7474;BME280;3778;42.572;23.426;2022-12-18T00:46:48;59327.50;;;-146.70;82.42
7474;BME280;3778;42.572;23.426;2022-12-18T00:49:15;59364.69;;;-146.70;81.85
7474;BME280;3778;42.572;23.426;2022-12-18T00:51:42;59308.91;;;-146.70;81.75
7474;BME280;3778;42.572;23.426;2022-12-18T00:54:10;59335.78;;;-146.70;81.40
7474;BME280;3778;42.572;23.426;2022-12-18T00:56:38;59356.44;;;-146.70;80.82
7474;BME280;3778;42.572;23.426;2022-12-18T00:59:05;59310.97;;;-146.70;81.42
7474;BME280;3778;42.572;23.426;2022-12-18T01:01:31;59294.44;;;-146.70;81.35
7474;BME280;3778;42.572;23.426;2022-12-18T01:04:00;59360.56;;;-146.70;80.62
7474;BME280;3778;42.572;23.426;2022-12-18T01:06:27;59348.16;;;-146.70;80.30
7474;BME280;3778;42.572;23.426;2022-12-18T01:08:54;59325.44;;;-146.70;80.42
7474;BME280;3778;42.572;23.426;2022-12-18T01:11:23;59337.84;;;-146.70;80.39
7474;BME280;3778;42.572;23.426;2022-12-18T01:13:52;59341.97;;;-146.70;80.14
7474;BME280;3778;42.572;23.426;2022-12-18T01:16:19;59315.13;;;-146.70;80.69
7474;BME280;3778;42.572;23.426;2022-12-18T01:18:45;59310.97;;;-146.70;80.57
7474;BME280;3778;42.572;23.426;2022-12-18T01:21:14;59333.69;;;-146.70;80.46
7474;BME280;3778;42.572;23.426;2022-12-18T01:23:41;59329.56;;;-146.70;80.64
7474;BME280;3778;42.572;23.426;2022-12-18T01:26:09;59319.25;;;-146.70;80.59
7474;BME280;3778;42.572;23.426;2022-12-18T01:28:39;59335.78;;;-146.70;80.18
7474;BME280;3778;42.572;23.426;2022-12-18T01:31:10;59319.25;;;-146.70;79.99
7474;BME280;3778;42.572;23.426;2022-12-18T01:33:37;59319.25;;;-146.70;80.23
7474;BME280;3778;42.572;23.426;2022-12-18T01:36:04;59333.69;;;-146.70;80.24
7474;BME280;3778;42.572;23.426;2022-12-18T01:38:31;59331.63;;;-146.70;80.33
7474;BME280;3778;42.572;23.426;2022-12-18T01:40:58;59319.25;;;-146.70;80.34
7474;BME280;3778;42.572;23.426;2022-12-18T01:43:44;59313.03;;;-146.70;80.67
7474;BME280;3778;42.572;23.426;2022-12-18T01:46:12;59346.09;;;-146.70;80.65
7474;BME280;3778;42.572;23.426;2022-12-18T01:48:39;59315.13;;;-146.70;80.65
7474;BME280;3778;42.572;23.426;2022-12-18T01:51:08;59323.38;;;-146.70;80.32
7474;BME280;3778;42.572;23.426;2022-12-18T01:53:37;59329.56;;;-146.70;79.84
7474;BME280;3778;42.572;23.426;2022-12-18T01:56:05;59331.63;;;-146.70;80.21
7474;BME280;3778;42.572;23.426;2022-12-18T01:58:37;59275.88;;;-146.70;79.98
7474;BME280;3778;42.572;23.426;2022-12-18T02:01:08;59335.78;;;-146.70;80.16
7474;BME280;3778;42.572;23.426;2022-12-18T02:03:35;59300.66;;;-146.70;80.18
7474;BME280;3778;42.572;23.426;2022-12-18T02:06:09;59360.56;;;-146.70;80.31
7474;BME280;3778;42.572;23.426;2022-12-18T02:08:45;59294.44;;;-146.70;80.00
7474;BME280;3778;42.572;23.426;2022-12-18T02:11:18;59296.53;;;-146.70;80.24
7474;BME280;3778;42.572;23.426;2022-12-18T02:13:53;59308.91;;;-146.70;80.28
7474;BME280;3778;42.572;23.426;2022-12-18T02:16:29;59344.03;;;-146.70;80.49
7474;BME280;3778;42.572;23.426;2022-12-18T02:19:06;59327.50;;;-146.70;81.03
7474;BME280;3778;42.572;23.426;2022-12-18T02:21:43;59323.38;;;-146.70;81.66
7474;BME280;3778;42.572;23.426;2022-12-18T02:24:25;59335.78;;;-146.70;81.40
7474;BME280;3778;42.572;23.426;2022-12-18T02:26:58;59321.31;;;-146.70;81.60
7474;BME280;3778;42.572;23.426;2022-12-18T02:29:30;59300.66;;;-146.70;81.65
7474;BME280;3778;42.572;23.426;2022-12-18T02:31:59;59306.84;;;-146.70;82.18
7474;BME280;3778;42.572;23.426;2022-12-18T02:34:32;59327.50;;;-146.70;82.40
7474;BME280;3778;42.572;23.426;2022-12-18T02:37:02;59282.06;;;-146.70;82.30
7474;BME280;3778;42.572;23.426;2022-12-18T02:39:32;59327.50;;;-146.70;82.57
7474;BME280;3778;42.572;23.426;2022-12-18T02:42:01;59317.19;;;-146.70;83.18
7474;BME280;3778;42.572;23.426;2022-12-18T02:44:33;59327.50;;;-146.70;83.22
7474;BME280;3778;42.572;23.426;2022-12-18T02:47:00;59325.44;;;-146.70;83.20
7474;BME280;3778;42.572;23.426;2022-12-18T02:49:33;59321.31;;;-146.70;83.19
7474;BME280;3778;42.572;23.426;2022-12-18T02:52:08;59346.09;;;-146.70;83.25
7474;BME280;3778;42.572;23.426;2022-12-18T02:54:52;59294.44;;;-146.70;83.52
7474;BME280;3778;42.572;23.426;2022-12-18T02:57:31;59298.59;;;-146.70;83.60
7474;BME280;3778;42.572;23.426;2022-12-18T03:00:03;59364.69;;;-146.70;83.57
7474;BME280;3778;42.572;23.426;2022-12-18T03:02:35;59331.63;;;-146.70;83.34
7474;BME280;3778;42.572;23.426;2022-12-18T03:05:09;59282.06;;;-146.70;83.56
7474;BME280;3778;42.572;23.426;2022-12-18T03:07:41;59306.84;;;-146.70;83.63
7474;BME280;3778;42.572;23.426;2022-12-18T03:10:12;59344.03;;;-146.70;83.45
7474;BME280;3778;42.572;23.426;2022-12-18T03:12:43;59282.06;;;-146.70;83.65
7474;BME280;3778;42.572;23.426;2022-12-18T03:15:15;59306.84;;;-146.70;83.30
7474;BME280;3778;42.572;23.426;2022-12-18T03:17:46;59317.19;;;-146.70;83.54
7474;BME280;3778;42.572;23.426;2022-12-18T03:20:18;59315.13;;;-146.70;83.43
7474;BME280;3778;42.572;23.426;2022-12-18T03:22:50;59302.72;;;-146.70;83.02
7474;BME280;3778;42.572;23.426;2022-12-18T03:25:19;59306.84;;;-146.70;82.92
7474;BME280;3778;42.572;23.426;2022-12-18T03:27:49;59335.78;;;-146.70;82.44
7474;BME280;3778;42.572;23.426;2022-12-18T03:30:17;59306.84;;;-146.70;82.67
7474;BME280;3778;42.572;23.426;2022-12-18T03:32:47;59323.38;;;-146.70;82.17
7474;BME280;3778;42.572;23.426;2022-12-18T03:35:18;59327.50;;;-146.70;82.33
7474;BME280;3778;42.572;23.426;2022-12-18T03:37:47;59298.59;;;-146.70;82.78
7474;BME280;3778;42.572;23.426;2022-12-18T03:40:13;59277.94;;;-146.70;82.84
7474;BME280;3778;42.572;23.426;2022-12-18T03:42:45;59323.38;;;-146.70;83.15
7474;BME280;3778;42.572;23.426;2022-12-18T03:45:20;59294.44;;;-146.70;83.02
7474;BME280;3778;42.572;23.426;2022-12-18T03:47:58;59321.31;;;-146.70;82.65
7474;BME280;3778;42.572;23.426;2022-12-18T03:50:34;59310.97;;;-146.70;82.48
7474;BME280;3778;42.572;23.426;2022-12-18T03:53:13;59313.03;;;-146.70;82.31
7474;BME280;3778;42.572;23.426;2022-12-18T03:55:44;59323.38;;;-146.70;82.37
7474;BME280;3778;42.572;23.426;2022-12-18T03:58:13;59317.19;;;-146.70;82.31
7474;BME280;3778;42.572;23.426;2022-12-18T04:00:44;59327.50;;;-146.70;82.33
7474;BME280;3778;42.572;23.426;2022-12-18T04:03:13;59298.59;;;-146.70;82.17
7474;BME280;3778;42.572;23.426;2022-12-18T04:05:41;59308.91;;;-146.70;82.21
7474;BME280;3778;42.572;23.426;2022-12-18T04:08:09;59292.38;;;-146.70;81.88
7474;BME280;3778;42.572;23.426;2022-12-18T04:10:37;59294.44;;;-146.70;81.73
7474;BME280;3778;42.572;23.426;2022-12-18T04:13:04;59327.50;;;-146.70;81.69
7474;BME280;3778;42.572;23.426;2022-12-18T04:15:33;59282.06;;;-146.70;81.70
7474;BME280;3778;42.572;23.426;2022-12-18T04:18:02;59317.19;;;-146.70;81.25
7474;BME280;3778;42.572;23.426;2022-12-18T04:20:29;59304.78;;;-146.70;81.06
7474;BME280;3778;42.572;23.426;2022-12-18T04:22:56;59300.66;;;-146.70;80.69
7474;BME280;3778;42.572;23.426;2022-12-18T04:25:23;59302.72;;;-146.70;80.56
7474;BME280;3778;42.572;23.426;2022-12-18T04:27:49;59294.44;;;-146.70;80.37
7474;BME280;3778;42.572;23.426;2022-12-18T04:30:16;59304.78;;;-146.70;80.51
7474;BME280;3778;42.572;23.426;2022-12-18T04:32:43;59317.19;;;-146.70;80.88
7474;BME280;3778;42.572;23.426;2022-12-18T04:35:11;59306.84;;;-146.70;81.13
7474;BME280;3778;42.572;23.426;2022-12-18T04:37:38;59327.50;;;-146.70;81.56
7474;BME280;3778;42.572;23.426;2022-12-18T04:40:05;59352.28;;;-146.70;81.08
7474;BME280;3778;42.572;23.426;2022-12-18T04:42:32;59306.84;;;-146.70;80.80
7474;BME280;3778;42.572;23.426;2022-12-18T04:44:59;59298.59;;;-146.70;80.36
7474;BME280;3778;42.572;23.426;2022-12-18T04:47:26;59335.78;;;-146.70;80.05
7474;BME280;3778;42.572;23.426;2022-12-18T04:49:52;59319.25;;;-146.70;79.71
7474;BME280;3778;42.572;23.426;2022-12-18T04:52:20;59313.03;;;-146.70;79.62
7474;BME280;3778;42.572;23.426;2022-12-18T04:54:47;59335.78;;;-146.70;79.85
7474;BME280;3778;42.572;23.426;2022-12-18T04:57:14;59308.91;;;-146.70;79.69
7474;BME280;3778;42.572;23.426;2022-12-18T04:59:40;59265.53;;;-146.70;79.48
7474;BME280;3778;42.572;23.426;2022-12-18T05:02:07;59308.91;;;-146.70;79.17
7474;BME280;3778;42.572;23.426;2022-12-18T05:04:34;59300.66;;;-146.70;78.98
7474;BME280;3778;42.572;23.426;2022-12-18T05:07:00;59317.19;;;-146.70;78.53
7474;BME280;3778;42.572;23.426;2022-12-18T05:09:28;59308.91;;;-146.70;78.48
7474;BME280;3778;42.572;23.426;2022-12-18T05:11:55;59315.13;;;-146.70;78.32
7474;BME280;3778;42.572;23.426;2022-12-18T05:14:22;59346.09;;;-146.70;77.81
7474;BME280;3778;42.572;23.426;2022-12-18T05:16:48;59290.31;;;-146.70;78.04
7474;BME280;3778;42.572;23.426;2022-12-18T05:19:15;59319.25;;;-146.70;78.24
7474;BME280;3778;42.572;23.426;2022-12-18T05:21:42;59267.59;;;-146.70;78.38
7474;BME280;3778;42.572;23.426;2022-12-18T05:24:08;59284.13;;;-146.70;78.20
7474;BME280;3778;42.572;23.426;2022-12-18T05:26:37;59310.97;;;-146.70;78.02
7474;BME280;3778;42.572;23.426;2022-12-18T05:29:03;59292.38;;;-146.70;77.84
7474;BME280;3778;42.572;23.426;2022-12-18T05:31:30;59308.91;;;-146.70;77.67
7474;BME280;3778;42.572;23.426;2022-12-18T05:33:57;59292.38;;;-146.70;77.99
7474;BME280;3778;42.572;23.426;2022-12-18T05:36:24;59304.78;;;-146.70;77.66
7474;BME280;3778;42.572;23.426;2022-12-18T05:38:51;59308.91;;;-146.70;77.36
7474;BME280;3778;42.572;23.426;2022-12-18T05:41:17;59271.72;;;-146.70;77.42
7474;BME280;3778;42.572;23.426;2022-12-18T05:43:45;59302.72;;;-146.70;77.31
7474;BME280;3778;42.572;23.426;2022-12-18T05:46:14;59323.38;;;-146.70;77.18
7474;BME280;3778;42.572;23.426;2022-12-18T05:48:43;59298.59;;;-146.70;77.16
7474;BME280;3778;42.572;23.426;2022-12-18T05:51:13;59290.31;;;-146.70;76.59
7474;BME280;3778;42.572;23.426;2022-12-18T05:53:41;59255.22;;;-146.70;76.46
7474;BME280;3778;42.572;23.426;2022-12-18T05:56:12;59294.44;;;-146.70;76.61
7474;BME280;3778;42.572;23.426;2022-12-18T05:58:40;59327.50;;;-146.70;76.22
7474;BME280;3778;42.572;23.426;2022-12-18T06:01:10;59319.25;;;-146.70;76.25
7474;BME280;3778;42.572;23.426;2022-12-18T06:03:38;59294.44;;;-146.70;76.38
7474;BME280;3778;42.572;23.426;2022-12-18T06:06:12;59298.59;;;-146.70;76.70
7474;BME280;3778;42.572;23.426;2022-12-18T06:08:39;59300.66;;;-146.70;76.62
7474;BME280;3778;42.572;23.426;2022-12-18T06:11:06;59339.91;;;-146.70;76.29
7474;BME280;3778;42.572;23.426;2022-12-18T06:13:32;59348.16;;;-146.70;76.26
7474;BME280;3778;42.572;23.426;2022-12-18T06:16:02;59310.97;;;-146.70;75.87
7474;BME280;3778;42.572;23.426;2022-12-18T06:18:30;59298.59;;;-146.70;76.13
7474;BME280;3778;42.572;23.426;2022-12-18T06:20:57;59300.66;;;-146.70;76.50
7474;BME280;3778;42.572;23.426;2022-12-18T06:23:24;59315.13;;;-146.70;75.66
7474;BME280;3778;42.572;23.426;2022-12-18T06:25:51;59273.78;;;-146.70;75.94
7474;BME280;3778;42.572;23.426;2022-12-18T06:28:18;59263.47;;;-146.70;76.31
7474;BME280;3778;42.572;23.426;2022-12-18T06:30:46;59277.94;;;-146.70;76.60
7474;BME280;3778;42.572;23.426;2022-12-18T06:33:18;59323.38;;;-146.70;76.03
7474;BME280;3778;42.572;23.426;2022-12-18T06:35:46;59325.44;;;-146.70;76.23
7474;BME280;3778;42.572;23.426;2022-12-18T06:38:16;59255.22;;;-146.70;76.16
7474;BME280;3778;42.572;23.426;2022-12-18T06:40:43;59350.22;;;-146.70;76.14
7474;BME280;3778;42.572;23.426;2022-12-18T06:43:10;59335.78;;;-146.70;76.52
7474;BME280;3778;42.572;23.426;2022-12-18T06:45:37;59319.25;;;-146.70;76.12
7474;BME280;3778;42.572;23.426;2022-12-18T06:48:03;59323.38;;;-146.70;75.83
7474;BME280;3778;42.572;23.426;2022-12-18T06:50:30;59319.25;;;-146.70;75.75
7474;BME280;3778;42.572;23.426;2022-12-18T06:52:59;59271.72;;;-146.70;76.17
7474;BME280;3778;42.572;23.426;2022-12-18T06:55:25;59271.72;;;-146.70;75.53
7474;BME280;3778;42.572;23.426;2022-12-18T06:57:52;59294.44;;;-146.70;76.03
7474;BME280;3778;42.572;23.426;2022-12-18T07:00:19;59298.59;;;-146.70;75.79
7474;BME280;3778;42.572;23.426;2022-12-18T07:02:45;59321.31;;;-146.70;76.02
7474;BME280;3778;42.572;23.426;2022-12-18T07:05:13;59282.06;;;-146.70;75.81
7474;BME280;3778;42.572;23.426;2022-12-18T07:07:39;59329.56;;;-146.70;75.21
7474;BME280;3778;42.572;23.426;2022-12-18T07:10:08;59323.38;;;-146.70;75.65
7474;BME280;3778;42.572;23.426;2022-12-18T07:12:35;59306.84;;;-146.70;75.76
7474;BME280;3778;42.572;23.426;2022-12-18T07:15:02;59317.19;;;-146.70;74.56
7474;BME280;3778;42.572;23.426;2022-12-18T07:17:29;59273.78;;;-146.70;75.13
7474;BME280;3778;42.572;23.426;2022-12-18T07:19:56;59306.84;;;-146.70;74.33
7474;BME280;3778;42.572;23.426;2022-12-18T07:22:24;59242.81;;;-146.70;73.47
7474;BME280;3778;42.572;23.426;2022-12-18T07:24:51;59308.91;;;-146.70;73.75
7474;BME280;3778;42.572;23.426;2022-12-18T07:27:20;59325.44;;;-146.70;73.53
7474;BME280;3778;42.572;23.426;2022-12-18T07:29:46;59267.59;;;-146.70;73.24
7474;BME280;3778;42.572;23.426;2022-12-18T07:32:13;59302.72;;;-146.70;73.38
7474;BME280;3778;42.572;23.426;2022-12-18T07:34:40;59292.38;;;-146.70;72.64
7474;BME280;3778;42.572;23.426;2022-12-18T07:37:07;59300.66;;;-146.70;72.39
7474;BME280;3778;42.572;23.426;2022-12-18T07:39:34;59348.16;;;-146.70;72.51
7474;BME280;3778;42.572;23.426;2022-12-18T07:42:01;59300.66;;;-146.70;71.60
7474;BME280;3778;42.572;23.426;2022-12-18T07:44:46;59277.94;;;-146.70;71.47
7474;BME280;3778;42.572;23.426;2022-12-18T07:47:13;59321.31;;;-146.70;71.96
7474;BME280;3778;42.572;23.426;2022-12-18T07:49:40;59282.06;;;-146.70;71.93
7474;BME280;3778;42.572;23.426;2022-12-18T07:52:06;59319.25;;;-146.70;71.72
7474;BME280;3778;42.572;23.426;2022-12-18T07:54:34;59290.31;;;-146.70;71.21
7474;BME280;3778;42.572;23.426;2022-12-18T07:57:01;59294.44;;;-146.70;71.51
7474;BME280;3778;42.572;23.426;2022-12-18T07:59:28;59298.59;;;-146.70;70.85
7474;BME280;3778;42.572;23.426;2022-12-18T08:01:56;59292.38;;;-146.70;70.57
7474;BME280;3778;42.572;23.426;2022-12-18T08:04:22;59284.13;;;-146.70;70.70
7474;BME280;3778;42.572;23.426;2022-12-18T08:06:49;59302.72;;;-146.70;71.11
7474;BME280;3778;42.572;23.426;2022-12-18T08:09:16;59313.03;;;-146.70;71.19
7474;BME280;3778;42.572;23.426;2022-12-18T08:11:43;59286.19;;;-146.70;70.77
7474;BME280;3778;42.572;23.426;2022-12-18T08:14:10;59249.00;;;-146.70;71.56
7474;BME280;3778;42.572;23.426;2022-12-18T08:16:37;59284.13;;;-146.70;71.31
7474;BME280;3778;42.572;23.426;2022-12-18T08:19:05;59302.72;;;-146.70;71.23
7474;BME280;3778;42.572;23.426;2022-12-18T08:21:32;59277.94;;;-146.70;71.64
7474;BME280;3778;42.572;23.426;2022-12-18T08:24:00;59271.72;;;-146.70;71.34
7474;BME280;3778;42.572;23.426;2022-12-18T08:26:29;59261.41;;;-146.70;70.73
7474;BME280;3778;42.572;23.426;2022-12-18T08:28:58;59327.50;;;-146.70;71.26
7474;BME280;3778;42.572;23.426;2022-12-18T08:31:26;59288.25;;;-146.70;71.00
7474;BME280;3778;42.572;23.426;2022-12-18T08:33:54;59286.19;;;-146.70;71.65
7474;BME280;3778;42.572;23.426;2022-12-18T08:36:23;59304.78;;;-146.70;71.16
7474;BME280;3778;42.572;23.426;2022-12-18T08:38:50;59341.97;;;-146.70;70.67
7474;BME280;3778;42.572;23.426;2022-12-18T08:41:17;59302.72;;;-146.70;69.81
7474;BME280;3778;42.572;23.426;2022-12-18T08:43:45;59308.91;;;-146.70;70.44
7474;BME280;3778;42.572;23.426;2022-12-18T08:46:32;59315.13;;;-146.70;69.96
7474;BME280;3778;42.572;23.426;2022-12-18T08:49:00;59269.66;;;-146.70;69.85
7474;BME280;3778;42.572;23.426;2022-12-18T08:51:28;59310.97;;;-146.70;71.16
7474;BME280;3778;42.572;23.426;2022-12-18T08:53:55;59292.38;;;-146.70;71.24
7474;BME280;3778;42.572;23.426;2022-12-18T08:56:22;59310.97;;;-146.70;70.61
7474;BME280;3778;42.572;23.426;2022-12-18T08:58:51;59288.25;;;-146.70;69.86
7474;BME280;3778;42.572;23.426;2022-12-18T09:01:19;59306.84;;;-146.70;70.84
7474;BME280;3778;42.572;23.426;2022-12-18T09:03:47;59306.84;;;-146.70;69.98
7474;BME280;3778;42.572;23.426;2022-12-18T09:06:15;59315.13;;;-146.70;70.73
7474;BME280;3778;42.572;23.426;2022-12-18T09:08:44;59275.88;;;-146.70;69.86
7474;BME280;3778;42.572;23.426;2022-12-18T09:11:15;59313.03;;;-146.70;70.72
7474;BME280;3778;42.572;23.426;2022-12-18T09:13:45;59282.06;;;-146.70;69.97
7474;BME280;3778;42.572;23.426;2022-12-18T09:16:17;59290.31;;;-146.70;70.69
7474;BME280;3778;42.572;23.426;2022-12-18T09:18:44;59302.72;;;-146.70;69.92
7474;BME280;3778;42.572;23.426;2022-12-18T09:21:16;59323.38;;;-146.70;70.03
7474;BME280;3778;42.572;23.426;2022-12-18T09:23:45;59296.53;;;-146.70;70.57
7474;BME280;3778;42.572;23.426;2022-12-18T09:26:15;59286.19;;;-146.70;70.18
7474;BME280;3778;42.572;23.426;2022-12-18T09:28:42;59300.66;;;-146.70;69.85
7474;BME280;3778;42.572;23.426;2022-12-18T09:31:11;59282.06;;;-146.70;70.52
7474;BME280;3778;42.572;23.426;2022-12-18T09:33:41;59323.38;;;-146.70;70.59
7474;BME280;3778;42.572;23.426;2022-12-18T09:36:10;59282.06;;;-146.70;70.16
7474;BME280;3778;42.572;23.426;2022-12-18T09:38:37;59290.31;;;-146.70;69.42
7474;BME280;3778;42.572;23.426;2022-12-18T09:41:19;59337.84;;;-146.70;69.71
7474;BME280;3778;42.572;23.426;2022-12-18T09:43:50;59313.03;;;-146.70;69.44
7474;BME280;3778;42.572;23.426;2022-12-18T09:46:23;59296.53;;;-146.70;69.78
7474;BME280;3778;42.572;23.426;2022-12-18T09:48:54;59313.03;;;-146.70;69.28
7474;BME280;3778;42.572;23.426;2022-12-18T09:51:27;59296.53;;;-146.70;69.04
7474;BME280;3778;42.572;23.426;2022-12-18T09:53:58;59273.78;;;-146.70;68.75
7474;BME280;3778;42.572;23.426;2022-12-18T09:56:28;59282.06;;;-146.70;69.14
7474;BME280;3778;42.572;23.426;2022-12-18T09:58:59;59296.53;;;-146.70;69.83
7474;BME280;3778;42.572;23.426;2022-12-18T10:01:27;59265.53;;;-146.70;69.72
7474;BME280;3778;42.572;23.426;2022-12-18T10:03:55;59273.78;;;-146.70;70.09
7474;BME280;3778;42.572;23.426;2022-12-18T10:06:26;59292.38;;;-146.70;69.59
7474;BME280;3778;42.572;23.426;2022-12-18T10:08:59;59306.84;;;-146.70;71.12
7474;BME280;3778;42.572;23.426;2022-12-18T10:11:37;59290.31;;;-146.70;70.19
7474;BME280;3778;42.572;23.426;2022-12-18T10:14:10;59306.84;;;-146.70;69.50
7474;BME280;3778;42.572;23.426;2022-12-18T10:16:45;59284.13;;;-146.70;69.49
7474;BME280;3778;42.572;23.426;2022-12-18T10:19:39;59282.06;;;-146.70;70.36
7474;BME280;3778;42.572;23.426;2022-12-18T10:22:13;59292.38;;;-146.70;70.18
7474;BME280;3778;42.572;23.426;2022-12-18T10:24:45;59290.31;;;-146.70;69.99
7474;BME280;3778;42.572;23.426;2022-12-18T10:27:23;59292.38;;;-146.70;70.01
7474;BME280;3778;42.572;23.426;2022-12-18T10:29:50;59280.00;;;-146.70;70.59
7474;BME280;3778;42.572;23.426;2022-12-18T10:32:19;59294.44;;;-146.70;71.18
7474;BME280;3778;42.572;23.426;2022-12-18T10:34:47;59294.44;;;-146.70;70.90
7474;BME280;3778;42.572;23.426;2022-12-18T10:37:16;59298.59;;;-146.70;70.54
7474;BME280;3778;42.572;23.426;2022-12-18T10:39:44;59319.25;;;-146.70;70.57
7474;BME280;3778;42.572;23.426;2022-12-18T10:42:16;59265.53;;;-146.70;70.39
7474;BME280;3778;42.572;23.426;2022-12-18T10:44:46;59300.66;;;-146.70;68.34
7474;BME280;3778;42.572;23.426;2022-12-18T10:47:27;59319.25;;;-146.70;67.82
7474;BME280;3778;42.572;23.426;2022-12-18T10:49:54;59290.31;;;-146.70;67.94
7474;BME280;3778;42.572;23.426;2022-12-18T10:52:22;59304.78;;;-146.70;67.99
7474;BME280;3778;42.572;23.426;2022-12-18T10:54:52;59298.59;;;-146.70;68.38
7474;BME280;3778;42.572;23.426;2022-12-18T10:57:34;59273.78;;;-146.70;68.63
7474;BME280;3778;42.572;23.426;2022-12-18T11:00:22;59273.78;;;-146.70;68.87
7474;BME280;3778;42.572;23.426;2022-12-18T11:02:50;59277.94;;;-146.70;68.78
7474;BME280;3778;42.572;23.426;2022-12-18T11:05:25;59269.66;;;-146.70;68.79
7474;BME280;3778;42.572;23.426;2022-12-18T11:07:52;59335.78;;;-146.70;68.59
7474;BME280;3778;42.572;23.426;2022-12-18T11:10:22;59296.53;;;-146.70;68.88
7474;BME280;3778;42.572;23.426;2022-12-18T11:12:50;59300.66;;;-146.70;69.15
7474;BME280;3778;42.572;23.426;2022-12-18T11:15:20;59333.69;;;-146.70;69.41
7474;BME280;3778;42.572;23.426;2022-12-18T11:17:50;59286.19;;;-146.70;69.62
7474;BME280;3778;42.572;23.426;2022-12-18T11:20:31;59288.25;;;-146.70;69.53
7474;BME280;3778;42.572;23.426;2022-12-18T11:23:00;59275.88;;;-146.70;69.14
7474;BME280;3778;42.572;23.426;2022-12-18T11:25:28;59304.78;;;-146.70;68.20
7474;BME280;3778;42.572;23.426;2022-12-18T11:27:56;59290.31;;;-146.70;66.98
7474;BME280;3778;42.572;23.426;2022-12-18T11:30:28;59271.72;;;-146.70;67.33
7474;BME280;3778;42.572;23.426;2022-12-18T11:33:03;59263.47;;;-146.70;66.60
7474;BME280;3778;42.572;23.426;2022-12-18T11:35:38;59265.53;;;-146.70;66.74
7474;BME280;3778;42.572;23.426;2022-12-18T11:38:21;59271.72;;;-146.70;65.61
7474;BME280;3778;42.572;23.426;2022-12-18T11:40:53;59273.78;;;-146.70;65.30
7474;BME280;3778;42.572;23.426;2022-12-18T11:43:27;59271.72;;;-146.70;64.98
7474;BME280;3778;42.572;23.426;2022-12-18T11:45:59;59275.88;;;-146.70;64.94
7474;BME280;3778;42.572;23.426;2022-12-18T11:48:30;59277.94;;;-146.70;65.38
7474;BME280;3778;42.572;23.426;2022-12-18T11:51:01;59306.84;;;-146.70;65.58
7474;BME280;3778;42.572;23.426;2022-12-18T11:53:29;59280.00;;;-146.70;65.51
7474;BME280;3778;42.572;23.426;2022-12-18T11:56:05;59277.94;;;-146.70;65.50
7474;BME280;3778;42.572;23.426;2022-12-18T11:58:46;59288.25;;;-146.70;64.97
7474;BME280;3778;42.572;23.426;2022-12-18T12:01:29;59290.31;;;-146.70;65.20
7474;BME280;3778;42.572;23.426;2022-12-18T12:06:59;59271.72;;;-146.70;63.29
7474;BME280;3778;42.572;23.426;2022-12-18T12:09:32;59277.94;;;-146.70;64.80
7474;BME280;3778;42.572;23.426;2022-12-18T12:12:19;59292.38;;;-146.70;63.13
7474;BME280;3778;42.572;23.426;2022-12-18T12:14:56;59275.88;;;-146.70;64.38
7474;BME280;3778;42.572;23.426;2022-12-18T12:17:47;59331.63;;;-146.70;64.58
7474;BME280;3778;42.572;23.426;2022-12-18T12:20:21;59294.44;;;-146.70;63.91
7474;BME280;3778;42.572;23.426;2022-12-18T12:22:55;59284.13;;;-146.70;62.97
7474;BME280;3778;42.572;23.426;2022-12-18T12:25:31;59277.94;;;-146.70;62.25
7474;BME280;3778;42.572;23.426;2022-12-18T12:28:09;59238.69;;;-146.70;62.20
7474;BME280;3778;42.572;23.426;2022-12-18T12:30:44;59280.00;;;-146.70;62.95
7474;BME280;3778;42.572;23.426;2022-12-18T12:33:25;59290.31;;;-146.70;62.47
7474;BME280;3778;42.572;23.426;2022-12-18T12:36:01;59242.81;;;-146.70;63.01
7474;BME280;3778;42.572;23.426;2022-12-18T12:38:34;59323.38;;;-146.70;63.64
7474;BME280;3778;42.572;23.426;2022-12-18T12:41:04;59288.25;;;-146.70;63.93
7474;BME280;3778;42.572;23.426;2022-12-18T12:43:53;59290.31;;;-146.70;64.30
7474;BME280;3778;42.572;23.426;2022-12-18T12:46:21;59282.06;;;-146.70;63.73
7474;BME280;3778;42.572;23.426;2022-12-18T12:48:50;59240.75;;;-146.70;63.52
7474;BME280;3778;42.572;23.426;2022-12-18T12:51:22;59302.72;;;-146.70;63.39
7474;BME280;3778;42.572;23.426;2022-12-18T12:53:50;59267.59;;;-146.70;63.90
7474;BME280;3778;42.572;23.426;2022-12-18T12:56:20;59280.00;;;-146.70;64.40
7474;BME280;3778;42.572;23.426;2022-12-18T12:58:55;59261.41;;;-146.70;64.50
7474;BME280;3778;42.572;23.426;2022-12-18T13:01:30;59267.59;;;-146.70;64.48
7474;BME280;3778;42.572;23.426;2022-12-18T13:04:07;59246.94;;;-146.70;62.98
7474;BME280;3778;42.572;23.426;2022-12-18T13:06:45;59286.19;;;-146.70;63.96
7474;BME280;3778;42.572;23.426;2022-12-18T13:09:14;59298.59;;;-146.70;63.79